createdAt,value
2019-04-29T00:01:47.728Z,81.90
2019-04-29T00:04:16.614Z,82.00
2019-04-29T00:06:45.594Z,82.10
2019-04-29T00:09:15.604Z,82.30
2019-04-29T00:11:44.525Z,82.40
2019-04-29T00:14:13.664Z,82.50
2019-04-29T00:17:08.333Z,82.70
2019-04-29T00:20:02.114Z,82.80
2019-04-29T00:22:31.172Z,82.90
2019-04-29T00:25:00.152Z,82.90
2019-04-29T00:27:29.086Z,83.10
2019-04-29T00:29:57.995Z,83.20
2019-04-29T00:32:27.064Z,83.30
2019-04-29T00:34:56.051Z,83.40
2019-04-29T00:37:44.048Z,83.50
2019-04-29T00:40:43.832Z,83.50
2019-04-29T00:43:30.600Z,83.50
2019-04-29T00:45:59.630Z,83.50
2019-04-29T00:48:28.728Z,83.70
2019-04-29T00:50:59.199Z,83.70
2019-04-29T00:53:28.414Z,83.90
2019-04-29T00:55:58.885Z,84.80
2019-04-29T00:58:27.830Z,84.10
2019-04-29T01:00:56.903Z,84.20
2019-04-29T01:03:25.843Z,84.20
2019-04-29T01:05:54.784Z,84.30
2019-04-29T01:08:23.830Z,84.40
2019-04-29T01:10:52.787Z,84.40
2019-04-29T01:13:21.676Z,84.40
2019-04-29T01:15:50.498Z,84.40
2019-04-29T01:18:19.458Z,84.40
2019-04-29T01:21:07.586Z,84.60
2019-04-29T01:23:36.406Z,84.50
2019-04-29T01:26:30.484Z,84.50
2019-04-29T01:28:59.757Z,84.70
2019-04-29T01:31:31.843Z,84.70
2019-04-29T01:34:15.803Z,84.70
2019-04-29T01:36:45.801Z,84.80
2019-04-29T01:39:16.372Z,84.90
2019-04-29T01:42:03.000Z,84.90
2019-04-29T01:44:33.992Z,84.90
2019-04-29T01:47:03.037Z,84.90
2019-04-29T01:49:31.976Z,85.00
2019-04-29T01:52:01.001Z,85.00
2019-04-29T01:54:29.977Z,84.30
2019-04-29T01:56:58.995Z,85.00
2019-04-29T01:59:28.035Z,85.10
2019-04-29T02:01:57.047Z,85.10
2019-04-29T02:04:26.054Z,85.10
2019-04-29T02:06:54.951Z,85.20
2019-04-29T02:09:29.525Z,85.20
2019-04-29T02:11:58.504Z,85.30
2019-04-29T02:14:27.569Z,85.40
2019-04-29T02:16:56.555Z,85.40
2019-04-29T02:19:25.461Z,85.40
2019-04-29T02:22:28.535Z,85.40
2019-04-29T02:25:02.794Z,85.80
2019-04-29T02:27:31.716Z,85.60
2019-04-29T02:30:00.610Z,85.50
2019-04-29T02:32:29.453Z,85.60
2019-04-29T02:34:58.402Z,85.60
2019-04-29T02:37:32.095Z,85.70
2019-04-29T02:40:10.075Z,85.70
2019-04-29T02:42:48.692Z,85.80
2019-04-29T02:45:24.486Z,85.70
2019-04-29T02:47:53.430Z,85.80
2019-04-29T02:50:22.403Z,85.80
2019-04-29T02:52:51.542Z,85.80
2019-04-29T02:55:29.336Z,85.90
2019-04-29T02:58:04.030Z,85.80
2019-04-29T03:00:52.128Z,85.90
2019-04-29T03:03:27.629Z,85.90
2019-04-29T03:05:59.842Z,86.00
2019-04-29T03:08:28.740Z,85.90
2019-04-29T03:10:58.942Z,86.00
2019-04-29T03:13:27.950Z,85.90
2019-04-29T03:15:57.087Z,86.00
2019-04-29T03:18:28.031Z,86.00
2019-04-29T03:21:01.932Z,86.10
2019-04-29T03:23:31.012Z,86.00
2019-04-29T03:25:59.785Z,86.10
2019-04-29T03:28:28.601Z,86.10
2019-04-29T03:30:57.557Z,86.10
2019-04-29T03:33:26.578Z,86.00
2019-04-29T03:35:55.636Z,86.10
2019-04-29T03:38:24.499Z,86.10
2019-04-29T03:40:53.477Z,86.10
2019-04-29T03:43:22.443Z,86.10
2019-04-29T03:45:51.326Z,86.10
2019-04-29T03:48:20.336Z,86.10
2019-04-29T03:50:49.127Z,86.10
2019-04-29T03:53:18.029Z,86.20
2019-04-29T03:55:46.985Z,86.20
2019-04-29T03:58:16.024Z,86.30
2019-04-29T04:01:29.081Z,86.30
2019-04-29T04:04:13.173Z,86.40
2019-04-29T04:06:46.959Z,86.40
2019-04-29T04:09:21.368Z,86.40
2019-04-29T04:11:50.381Z,86.50
2019-04-29T04:14:19.404Z,86.50
2019-04-29T04:17:20.267Z,86.60
2019-04-29T04:19:48.250Z,86.70
2019-04-29T04:22:17.301Z,86.50
2019-04-29T04:24:46.260Z,86.50
2019-04-29T04:27:15.089Z,86.50
2019-04-29T04:29:44.024Z,86.50
2019-04-29T04:32:12.892Z,86.40
2019-04-29T04:34:41.884Z,86.50
2019-04-29T04:37:10.862Z,86.40
2019-04-29T04:39:41.396Z,86.50
2019-04-29T04:42:10.401Z,86.40
2019-04-29T04:44:53.088Z,86.50
2019-04-29T04:47:22.147Z,86.50
2019-04-29T04:49:51.183Z,86.40
2019-04-29T04:52:21.447Z,86.40
2019-04-29T04:54:52.373Z,86.40
2019-04-29T04:57:21.290Z,86.40
2019-04-29T04:59:51.291Z,86.50
2019-04-29T05:02:21.293Z,86.50
2019-04-29T05:04:50.216Z,86.40
2019-04-29T05:07:19.271Z,86.50
2019-04-29T05:09:48.227Z,86.60
2019-04-29T05:12:17.169Z,86.70
2019-04-29T05:14:46.239Z,86.60
2019-04-29T05:17:16.675Z,86.60
2019-04-29T05:19:45.608Z,86.60
2019-04-29T05:22:14.517Z,86.60
2019-04-29T05:24:43.386Z,86.80
2019-04-29T05:27:12.432Z,86.80
2019-04-29T05:29:41.406Z,86.80
2019-04-29T05:32:10.378Z,86.90
2019-04-29T05:34:41.706Z,86.90
2019-04-29T05:37:19.187Z,87.00
2019-04-29T05:39:48.149Z,87.00
2019-04-29T05:42:17.374Z,87.00
2019-04-29T05:44:57.434Z,86.90
2019-04-29T05:47:37.979Z,86.90
2019-04-29T05:50:28.792Z,87.00
2019-04-29T05:53:17.908Z,87.10
2019-04-29T05:55:46.817Z,87.20
2019-04-29T05:58:15.730Z,87.30
2019-04-29T06:01:07.426Z,87.50
2019-04-29T06:03:37.804Z,87.70
2019-04-29T06:06:07.196Z,87.80
2019-04-29T06:08:39.320Z,88.00
2019-04-29T06:11:06.877Z,88.20
2019-04-29T06:13:35.948Z,88.20
2019-04-29T06:16:04.931Z,88.30
2019-04-29T06:18:33.817Z,88.50
2019-04-29T06:21:09.291Z,88.50
2019-04-29T06:23:33.421Z,88.60
2019-04-29T06:26:02.413Z,88.60
2019-04-29T06:28:31.301Z,88.60
2019-04-29T06:31:00.528Z,88.60
2019-04-29T06:33:30.984Z,88.60
2019-04-29T06:36:00.152Z,88.70
2019-04-29T06:38:29.137Z,88.60
2019-04-29T06:40:58.331Z,88.70
2019-04-29T06:43:28.670Z,88.60
2019-04-29T06:45:57.788Z,88.50
2019-04-29T06:48:26.796Z,88.40
2019-04-29T06:50:55.728Z,88.30
2019-04-29T06:53:24.624Z,88.90
2019-04-29T06:55:53.524Z,88.20
2019-04-29T06:58:22.446Z,88.80
2019-04-29T07:00:55.723Z,88.00
2019-04-29T07:03:25.577Z,87.90
2019-04-29T07:05:52.769Z,87.90
2019-04-29T07:08:21.744Z,87.70
2019-04-29T07:10:50.767Z,87.60
2019-04-29T07:13:22.925Z,87.40
2019-04-29T07:15:50.425Z,88.00
2019-04-29T07:18:19.411Z,87.10
2019-04-29T07:20:48.856Z,86.90
2019-04-29T07:23:17.803Z,86.60
2019-04-29T07:25:46.712Z,86.40
2019-04-29T07:28:18.491Z,86.00
2019-04-29T07:31:01.022Z,85.30
2019-04-29T07:33:22.180Z,85.30
2019-04-29T07:35:49.587Z,85.00
2019-04-29T07:38:18.667Z,84.60
2019-04-29T07:40:47.527Z,84.10
2019-04-29T07:43:16.558Z,83.60
2019-04-29T07:46:07.732Z,82.90
2019-04-29T07:48:41.319Z,82.40
2019-04-29T07:51:07.296Z,81.70
2019-04-29T07:53:44.704Z,80.90
2019-04-29T07:56:08.218Z,80.10
2019-04-29T07:58:37.345Z,79.10
2019-04-29T08:01:06.840Z,78.00
2019-04-29T08:03:35.739Z,76.90
2019-04-29T08:06:04.768Z,75.30
2019-04-29T08:08:33.651Z,73.40
2019-04-29T08:11:02.601Z,71.00
2019-04-29T08:13:31.680Z,68.20
2019-04-29T08:16:00.608Z,65.10
2019-04-29T08:18:29.520Z,62.10
2019-04-29T08:20:58.417Z,59.20
2019-04-29T08:23:27.365Z,56.70
2019-04-29T08:25:57.551Z,54.70
2019-04-29T08:28:27.038Z,52.90
2019-04-29T08:30:56.026Z,51.30
2019-04-29T08:33:25.001Z,49.80
2019-04-29T08:35:53.820Z,48.50
2019-04-29T08:38:22.775Z,47.40
2019-04-29T08:40:51.800Z,47.00
2019-04-29T08:43:38.610Z,47.20
2019-04-29T08:46:11.130Z,46.70
2019-04-29T08:48:40.148Z,45.70
2019-04-29T08:51:08.972Z,46.10
2019-04-29T08:53:39.241Z,46.40
2019-04-29T08:56:10.318Z,47.40
2019-04-29T08:58:39.506Z,47.10
2019-04-29T09:01:08.644Z,46.20
2019-04-29T09:03:40.619Z,46.40
2019-04-29T09:06:08.084Z,46.30
2019-04-29T09:08:37.069Z,46.10
2019-04-29T09:11:08.144Z,46.60
2019-04-29T09:13:36.856Z,46.20
2019-04-29T09:16:05.852Z,45.80
2019-04-29T09:18:34.782Z,45.80
2019-04-29T09:21:03.735Z,46.20
2019-04-29T09:23:33.888Z,46.50
2019-04-29T09:26:18.184Z,46.30
2019-04-29T09:28:49.819Z,46.10
2019-04-29T09:31:18.345Z,45.80
2019-04-29T09:33:50.823Z,45.60
2019-04-29T09:36:19.204Z,45.20
2019-04-29T09:38:48.168Z,45.00
2019-04-29T09:41:24.460Z,44.80
2019-04-29T09:44:12.628Z,44.70
2019-04-29T09:46:41.588Z,44.70
2019-04-29T09:49:10.362Z,44.60
2019-04-29T09:51:41.732Z,44.60
2019-04-29T09:54:14.701Z,44.80
2019-04-29T09:56:41.285Z,45.10
2019-04-29T09:59:25.796Z,45.30
2019-04-29T10:02:16.597Z,45.50
2019-04-29T10:04:59.125Z,45.70
2019-04-29T10:07:28.064Z,46.00
2019-04-29T10:09:57.839Z,46.20
2019-04-29T10:12:27.565Z,47.20
2019-04-29T10:15:17.273Z,46.80
2019-04-29T10:17:56.030Z,46.90
2019-04-29T10:20:30.416Z,47.10
2019-04-29T10:22:59.459Z,47.10
2019-04-29T10:25:29.670Z,47.30
2019-04-29T10:27:58.585Z,47.50
2019-04-29T10:30:31.108Z,47.70
2019-04-29T10:32:58.822Z,48.60
2019-04-29T10:35:27.796Z,48.10
2019-04-29T10:37:56.789Z,48.00
2019-04-29T10:40:32.672Z,48.00
2019-04-29T10:43:15.469Z,48.00
2019-04-29T10:46:02.178Z,48.00
2019-04-29T10:48:35.701Z,47.90
2019-04-29T10:51:05.462Z,47.70
2019-04-29T10:53:34.463Z,47.40
2019-04-29T10:56:05.824Z,47.30
2019-04-29T10:58:35.677Z,47.10
2019-04-29T11:01:54.630Z,47.00
2019-04-29T11:04:17.311Z,46.60
2019-04-29T11:06:46.317Z,46.20
2019-04-29T11:09:34.373Z,45.90
2019-04-29T11:12:05.368Z,45.60
2019-04-29T11:14:37.627Z,45.20
2019-04-29T11:17:04.907Z,44.90
2019-04-29T11:19:35.058Z,44.70
2019-04-29T11:22:04.608Z,44.60
2019-04-29T11:24:45.122Z,44.50
2019-04-29T11:27:18.201Z,44.40
2019-04-29T11:29:47.093Z,44.40
2019-04-29T11:32:24.846Z,44.20
2019-04-29T11:35:07.456Z,44.10
2019-04-29T11:37:38.070Z,44.00
2019-04-29T11:40:07.169Z,43.80
2019-04-29T11:42:39.466Z,43.80
2019-04-29T11:45:09.132Z,43.60
2019-04-29T11:47:38.139Z,43.40
2019-04-29T11:50:32.564Z,43.30
2019-04-29T11:53:01.686Z,43.20
2019-04-29T11:55:30.586Z,43.40
2019-04-29T11:58:08.293Z,43.20
2019-04-29T12:01:08.382Z,42.60
2019-04-29T12:03:38.941Z,42.40
2019-04-29T12:06:09.236Z,42.40
2019-04-29T12:08:38.313Z,42.20
2019-04-29T12:11:07.642Z,42.20
2019-04-29T12:13:58.910Z,42.30
2019-04-29T12:16:31.107Z,42.50
2019-04-29T12:19:07.378Z,42.40
2019-04-29T12:21:37.283Z,42.40
2019-04-29T12:24:07.745Z,42.20
2019-04-29T12:26:42.871Z,42.00
2019-04-29T12:29:07.548Z,41.70
2019-04-29T12:31:56.334Z,41.50
2019-04-29T12:34:43.435Z,41.40
2019-04-29T12:37:34.495Z,41.20
2019-04-29T12:40:36.715Z,41.20
2019-04-29T12:43:24.447Z,41.20
2019-04-29T12:46:12.548Z,41.20
2019-04-29T12:48:41.702Z,41.40
2019-04-29T12:51:10.819Z,41.10
2019-04-29T12:53:39.847Z,41.50
2019-04-29T12:56:11.256Z,41.50
2019-04-29T12:58:39.739Z,41.60
2019-04-29T13:01:19.964Z,41.80
2019-04-29T13:04:14.868Z,42.10
2019-04-29T13:07:12.988Z,42.50
2019-04-29T13:09:43.682Z,42.90
2019-04-29T13:12:19.693Z,43.30
2019-04-29T13:15:02.292Z,43.30
2019-04-29T13:17:32.016Z,43.30
2019-04-29T13:20:07.210Z,43.40
2019-04-29T13:22:54.162Z,43.60
2019-04-29T13:25:23.186Z,43.70
2019-04-29T13:27:56.070Z,44.00
2019-04-29T13:30:22.901Z,44.20
2019-04-29T13:32:52.954Z,44.30
2019-04-29T13:35:22.076Z,44.30
2019-04-29T13:37:51.046Z,44.20
2019-04-29T13:40:20.061Z,44.10
2019-04-29T13:42:51.007Z,44.20
2019-04-29T13:45:26.205Z,44.40
2019-04-29T13:48:07.103Z,44.60
2019-04-29T13:50:57.028Z,44.90
2019-04-29T13:53:26.012Z,45.10
2019-04-29T13:56:10.523Z,45.50
2019-04-29T13:58:27.175Z,45.80
2019-04-29T14:01:22.143Z,46.00
2019-04-29T14:03:51.600Z,46.10
2019-04-29T14:06:20.644Z,46.20
2019-04-29T14:08:49.669Z,46.10
2019-04-29T14:11:21.981Z,46.10
2019-04-29T14:13:49.212Z,46.10
2019-04-29T14:16:19.354Z,46.10
2019-04-29T14:18:50.043Z,46.10
2019-04-29T14:21:19.303Z,46.10
2019-04-29T14:23:48.299Z,46.20
2019-04-29T14:26:17.332Z,46.30
2019-04-29T14:28:46.265Z,46.30
2019-04-29T14:31:18.736Z,46.30
2019-04-29T14:33:55.931Z,46.40
2019-04-29T14:36:26.364Z,46.40
2019-04-29T14:38:55.366Z,46.40
2019-04-29T14:41:24.778Z,46.20
2019-04-29T14:44:05.989Z,45.90
2019-04-29T14:46:52.022Z,45.60
2019-04-29T14:49:26.660Z,45.50
2019-04-29T14:51:55.656Z,45.30
2019-04-29T14:54:24.648Z,45.10
2019-04-29T14:56:53.671Z,44.90
2019-04-29T14:59:22.635Z,44.70
2019-04-29T15:01:57.111Z,44.60
2019-04-29T15:04:28.731Z,44.20
2019-04-29T15:06:57.790Z,44.00
2019-04-29T15:09:26.808Z,44.00
2019-04-29T15:12:05.958Z,43.80
2019-04-29T15:15:07.903Z,43.70
2019-04-29T15:17:45.002Z,43.60
2019-04-29T15:20:43.060Z,43.30
2019-04-29T15:23:12.019Z,43.30
2019-04-29T15:25:41.002Z,43.30
2019-04-29T15:28:09.899Z,43.50
2019-04-29T15:30:38.770Z,43.70
2019-04-29T15:33:07.681Z,44.00
2019-04-29T15:35:36.792Z,44.10
2019-04-29T15:38:05.721Z,44.20
2019-04-29T15:40:42.202Z,44.10
2019-04-29T15:43:17.784Z,44.00
2019-04-29T15:45:46.463Z,44.00
2019-04-29T15:48:15.397Z,43.70
2019-04-29T15:50:44.440Z,43.10
2019-04-29T15:53:14.996Z,42.70
2019-04-29T15:55:43.846Z,42.10
2019-04-29T15:58:12.871Z,41.50
2019-04-29T16:00:41.947Z,41.20
2019-04-29T16:03:12.637Z,41.00
2019-04-29T16:06:19.690Z,40.80
2019-04-29T16:08:43.626Z,40.50
2019-04-29T16:11:33.276Z,40.10
2019-04-29T16:14:09.506Z,39.60
2019-04-29T16:16:31.803Z,39.50
2019-04-29T16:19:08.151Z,39.60
2019-04-29T16:21:32.220Z,39.80
2019-04-29T16:24:01.918Z,40.10
2019-04-29T16:26:32.104Z,40.40
2019-04-29T16:29:01.099Z,40.50
2019-04-29T16:31:30.136Z,40.60
2019-04-29T16:33:59.088Z,40.80
2019-04-29T16:36:28.039Z,41.00
2019-04-29T16:38:57.090Z,41.20
2019-04-29T16:41:45.179Z,41.30
2019-04-29T16:44:33.960Z,41.50
2019-04-29T16:46:46.107Z,41.50
2019-04-29T16:49:14.989Z,41.60
2019-04-29T16:51:47.943Z,41.80
2019-04-29T16:54:19.867Z,42.00
2019-04-29T16:56:45.253Z,42.50
2019-04-29T16:59:14.304Z,42.80
2019-04-29T17:01:43.451Z,43.20
2019-04-29T17:04:12.553Z,43.50
2019-04-29T17:06:47.171Z,43.90
2019-04-29T17:09:29.925Z,44.30
2019-04-29T17:12:00.122Z,44.50
2019-04-29T17:14:29.190Z,44.80
2019-04-29T17:16:58.267Z,45.10
2019-04-29T17:19:27.513Z,45.30
2019-04-29T17:22:23.603Z,45.50
2019-04-29T17:24:27.305Z,45.80
2019-04-29T17:27:03.813Z,46.00
2019-04-29T17:29:49.544Z,46.20
2019-04-29T17:32:53.802Z,46.50
2019-04-29T17:37:54.147Z,47.40
2019-04-29T17:40:24.004Z,47.70
2019-04-29T17:45:52.050Z,48.50
2019-04-29T17:48:27.790Z,48.80
2019-04-29T17:51:01.593Z,49.20
2019-04-29T17:53:35.529Z,49.50
2019-04-29T17:56:14.967Z,50.30
2019-04-29T17:58:51.595Z,49.90
2019-04-29T18:01:43.210Z,50.20
2019-04-29T18:04:28.472Z,50.50
2019-04-29T18:07:15.508Z,50.70
2019-04-29T18:09:55.192Z,51.00
2019-04-29T18:12:24.930Z,51.20
2019-04-29T18:14:55.159Z,51.50
2019-04-29T18:17:31.073Z,51.80
2019-04-29T18:20:30.754Z,52.10
2019-04-29T18:23:04.866Z,52.40
2019-04-29T18:25:50.449Z,52.70
2019-04-29T18:28:19.934Z,52.90
2019-04-29T18:30:49.829Z,53.20
2019-04-29T18:33:23.363Z,53.40
2019-04-29T18:35:50.308Z,53.60
2019-04-29T18:38:19.301Z,53.80
2019-04-29T18:40:49.436Z,54.10
2019-04-29T18:43:19.121Z,54.30
2019-04-29T18:45:56.162Z,54.50
2019-04-29T18:48:21.614Z,54.80
2019-04-29T18:50:50.422Z,55.10
2019-04-29T18:53:19.372Z,55.20
2019-04-29T18:55:48.380Z,55.40
2019-04-29T18:58:17.359Z,55.70
2019-04-29T19:00:52.324Z,56.00
2019-04-29T19:03:19.336Z,56.20
2019-04-29T19:05:56.936Z,56.50
2019-04-29T19:08:28.656Z,56.80
2019-04-29T19:10:56.548Z,57.10
2019-04-29T19:13:26.984Z,57.30
2019-04-29T19:16:08.763Z,57.60
2019-04-29T19:18:26.615Z,57.90
2019-04-29T19:20:56.960Z,58.00
2019-04-29T19:23:29.524Z,58.70
2019-04-29T19:25:56.960Z,58.70
2019-04-29T19:28:30.966Z,58.80
2019-04-29T19:31:03.257Z,59.10
2019-04-29T19:33:30.681Z,59.30
2019-04-29T19:35:57.711Z,59.60
2019-04-29T19:38:26.607Z,59.80
2019-04-29T19:40:55.826Z,60.10
2019-04-29T19:43:25.864Z,60.40
2019-04-29T19:45:57.433Z,60.60
2019-04-29T19:48:27.215Z,60.80
2019-04-29T19:51:13.916Z,61.00
2019-04-29T19:53:27.715Z,61.30
2019-04-29T19:56:04.194Z,61.40
2019-04-29T19:58:29.566Z,61.70
2019-04-29T20:01:10.888Z,62.00
2019-04-29T20:03:36.578Z,62.20
2019-04-29T20:06:09.009Z,62.40
2019-04-29T20:08:50.912Z,62.60
2019-04-29T20:11:14.109Z,62.80
2019-04-29T20:13:41.027Z,63.00
2019-04-29T20:16:42.762Z,63.40
2019-04-29T20:19:21.744Z,63.50
2019-04-29T20:21:51.199Z,63.70
2019-04-29T20:24:23.442Z,64.00
2019-04-29T20:26:50.909Z,64.20
2019-04-29T20:29:20.067Z,64.50
2019-04-29T20:31:53.312Z,64.70
2019-04-29T20:34:28.245Z,64.90
2019-04-29T20:36:56.893Z,65.00
2019-04-29T20:39:26.318Z,65.20
2019-04-29T20:42:01.107Z,65.20
2019-04-29T20:44:27.653Z,65.40
2019-04-29T20:47:13.994Z,65.60
2019-04-29T20:49:30.893Z,65.70
2019-04-29T20:52:05.848Z,65.80
2019-04-29T20:54:35.601Z,65.90
2019-04-29T20:57:12.572Z,66.10
2019-04-29T20:59:35.942Z,66.20
2019-04-29T21:02:12.575Z,66.30
2019-04-29T21:04:45.784Z,66.50
2019-04-29T21:07:08.467Z,66.60
2019-04-29T21:09:37.507Z,66.70
2019-04-29T21:12:22.972Z,66.80
2019-04-29T21:14:59.159Z,67.00
2019-04-29T21:17:31.444Z,67.10
2019-04-29T21:19:57.527Z,67.20
2019-04-29T21:22:26.495Z,67.30
2019-04-29T21:24:56.518Z,67.40
2019-04-29T21:27:25.953Z,67.60
2019-04-29T21:29:55.453Z,67.70
2019-04-29T21:32:25.838Z,67.70
2019-04-29T21:35:15.125Z,67.90
2019-04-29T21:37:53.069Z,68.00
2019-04-29T21:40:27.899Z,68.10
2019-04-29T21:43:00.935Z,68.10
2019-04-29T21:45:29.888Z,68.20
2019-04-29T21:47:58.836Z,68.30
2019-04-29T21:50:34.057Z,68.40
2019-04-29T21:53:01.952Z,68.60
2019-04-29T21:55:30.014Z,68.70
2019-04-29T21:58:00.154Z,68.80
2019-04-29T22:00:29.298Z,69.00
2019-04-29T22:02:59.077Z,69.10
2019-04-29T22:05:28.101Z,69.30
2019-04-29T22:07:57.152Z,69.40
2019-04-29T22:10:28.957Z,69.40
2019-04-29T22:13:01.926Z,69.60
2019-04-29T22:15:32.347Z,69.70
2019-04-29T22:18:01.269Z,69.80
2019-04-29T22:20:28.528Z,69.90
2019-04-29T22:22:58.652Z,70.10
2019-04-29T22:25:27.676Z,70.30
2019-04-29T22:27:56.684Z,70.50
2019-04-29T22:30:26.602Z,70.70
2019-04-29T22:32:58.675Z,70.80
2019-04-29T22:35:27.768Z,70.90
2019-04-29T22:37:56.866Z,71.10
2019-04-29T22:40:25.797Z,71.20
2019-04-29T22:43:10.207Z,71.40
2019-04-29T22:45:38.232Z,71.50
2019-04-29T22:48:15.713Z,71.70
2019-04-29T22:50:39.321Z,72.00
2019-04-29T22:53:08.998Z,72.00
2019-04-29T22:55:39.308Z,72.10
2019-04-29T22:58:09.992Z,72.20
2019-04-29T23:00:40.628Z,72.20
2019-04-29T23:03:09.612Z,72.30
2019-04-29T23:05:38.629Z,72.50
2019-04-29T23:08:07.541Z,72.60
2019-04-29T23:10:36.491Z,72.60
2019-04-29T23:13:06.157Z,72.80
2019-04-29T23:15:35.831Z,72.90
2019-04-29T23:18:06.123Z,73.00
2019-04-29T23:20:55.333Z,73.00
2019-04-29T23:23:33.436Z,73.10
2019-04-29T23:26:04.177Z,73.10
2019-04-29T23:28:32.960Z,73.20
2019-04-29T23:31:01.932Z,73.20
2019-04-29T23:33:30.754Z,73.30
2019-04-29T23:35:59.753Z,73.40
2019-04-29T23:38:28.696Z,73.40
2019-04-29T23:40:57.605Z,73.50
2019-04-29T23:43:28.435Z,73.50
2019-04-29T23:46:00.537Z,73.40
2019-04-29T23:48:38.727Z,73.40
2019-04-29T23:50:58.599Z,73.50
2019-04-29T23:53:27.620Z,73.50
2019-04-29T23:56:00.257Z,73.60
2019-04-29T23:58:47.927Z,73.60
